createdAt,value
2023-05-04T00:01:18.610Z,58.40
2023-05-04T00:03:50.846Z,58.40
2023-05-04T00:06:18.316Z,58.20
2023-05-04T00:08:45.627Z,58.30
2023-05-04T00:11:12.970Z,58.40
2023-05-04T00:13:42.452Z,58.30
2023-05-04T00:16:10.998Z,58.40
2023-05-04T00:18:39.234Z,58.30
2023-05-04T00:21:09.412Z,58.40
2023-05-04T00:23:41.279Z,58.50
2023-05-04T00:26:10.738Z,58.60
2023-05-04T00:28:42.718Z,58.60
2023-05-04T00:31:10.064Z,58.40
2023-05-04T00:33:39.525Z,58.60
2023-05-04T00:36:07.225Z,58.60
2023-05-04T00:38:49.088Z,58.60
2023-05-04T00:41:17.581Z,58.60
2023-05-04T00:43:45.621Z,58.60
2023-05-04T00:46:16.627Z,58.50
2023-05-04T00:48:49.448Z,58.60
2023-05-04T00:51:19.287Z,58.50
2023-05-04T00:53:47.754Z,58.60
2023-05-04T00:56:16.544Z,58.70
2023-05-04T00:58:43.924Z,58.70
2023-05-04T01:01:11.707Z,58.80
2023-05-04T01:03:39.102Z,58.80
2023-05-04T01:06:18.486Z,58.60
2023-05-04T01:09:11.253Z,58.80
2023-05-04T01:11:53.905Z,58.70
2023-05-04T01:14:22.319Z,58.70
2023-05-04T01:16:54.965Z,58.80
2023-05-04T01:19:25.070Z,58.80
2023-05-04T01:21:54.694Z,58.70
2023-05-04T01:24:22.208Z,58.70
2023-05-04T01:26:55.418Z,58.90
2023-05-04T01:29:27.613Z,58.90
2023-05-04T01:31:58.556Z,58.80
2023-05-04T01:34:28.430Z,58.90
2023-05-04T01:36:56.602Z,59.00
2023-05-04T01:39:26.409Z,59.00
2023-05-04T01:41:53.639Z,58.80
2023-05-04T01:44:20.958Z,58.90
2023-05-04T01:46:50.595Z,58.90
2023-05-04T01:49:22.858Z,58.90
2023-05-04T01:51:50.487Z,58.90
2023-05-04T01:54:17.750Z,59.10
2023-05-04T01:56:45.066Z,59.00
2023-05-04T01:59:12.370Z,59.10
2023-05-04T02:01:42.547Z,59.00
2023-05-04T02:04:10.009Z,59.10
2023-05-04T02:06:37.375Z,59.20
2023-05-04T02:09:04.672Z,59.20
2023-05-04T02:11:34.295Z,59.20
2023-05-04T02:14:01.547Z,59.00
2023-05-04T02:16:31.684Z,59.00
2023-05-04T02:19:01.131Z,59.10
2023-05-04T02:21:29.531Z,58.90
2023-05-04T02:23:59.421Z,58.90
2023-05-04T02:26:29.170Z,58.90
2023-05-04T02:28:56.628Z,58.80
2023-05-04T02:31:23.909Z,58.80
2023-05-04T02:33:53.809Z,58.70
2023-05-04T02:36:23.296Z,58.80
2023-05-04T02:38:51.343Z,58.70
2023-05-04T02:41:21.156Z,58.70
2023-05-04T02:43:48.448Z,58.70
2023-05-04T02:46:19.904Z,58.80
2023-05-04T02:48:49.397Z,58.80
2023-05-04T02:51:18.246Z,58.80
2023-05-04T02:53:45.571Z,58.50
2023-05-04T02:56:15.188Z,58.60
2023-05-04T02:58:45.078Z,58.60
2023-05-04T03:01:12.401Z,58.60
2023-05-04T03:03:42.155Z,58.60
2023-05-04T03:06:09.428Z,58.70
2023-05-04T03:08:36.659Z,58.70
2023-05-04T03:11:03.937Z,58.70
2023-05-04T03:13:31.349Z,58.60
2023-05-04T03:16:01.167Z,58.80
2023-05-04T03:21:15.894Z,58.80
2023-05-04T03:23:43.190Z,58.70
2023-05-04T03:26:10.578Z,58.80
2023-05-04T03:28:38.058Z,58.90
2023-05-04T03:31:05.340Z,58.90
2023-05-04T03:33:37.048Z,59.00
2023-05-04T03:36:04.611Z,58.90
2023-05-04T03:38:31.981Z,58.90
2023-05-04T03:40:59.251Z,59.00
2023-05-04T03:43:26.740Z,59.00
2023-05-04T03:45:56.464Z,59.10
2023-05-04T03:48:26.238Z,59.10
2023-05-04T03:50:56.687Z,59.20
2023-05-04T03:53:24.032Z,59.20
2023-05-04T03:55:55.803Z,59.10
2023-05-04T03:58:27.950Z,59.20
2023-05-04T04:00:57.404Z,59.20
2023-05-04T04:03:24.726Z,59.20
2023-05-04T04:05:54.936Z,59.20
2023-05-04T04:08:22.438Z,59.20
2023-05-04T04:10:49.695Z,59.30
2023-05-04T04:13:17.021Z,59.30
2023-05-04T04:15:45.700Z,59.40
2023-05-04T04:18:13.243Z,59.50
2023-05-04T04:20:40.943Z,59.40
2023-05-04T04:23:10.403Z,59.40
2023-05-04T04:25:38.089Z,59.50
2023-05-04T04:28:05.423Z,59.60
2023-05-04T04:30:32.728Z,59.50
2023-05-04T04:33:00.059Z,59.60
2023-05-04T04:35:27.523Z,59.70
2023-05-04T04:37:54.788Z,59.70
2023-05-04T04:40:22.665Z,59.70
2023-05-04T04:42:50.001Z,59.70
2023-05-04T04:45:20.364Z,59.70
2023-05-04T04:47:47.909Z,59.70
2023-05-04T04:50:15.264Z,59.70
2023-05-04T04:52:42.660Z,59.90
2023-05-04T04:55:10.197Z,60.00
2023-05-04T04:57:37.431Z,60.00
2023-05-04T05:00:10.061Z,60.20
2023-05-04T05:02:40.058Z,60.30
2023-05-04T05:05:08.201Z,60.60
2023-05-04T05:07:37.793Z,60.70
2023-05-04T05:10:05.751Z,60.80
2023-05-04T05:12:33.307Z,61.50
2023-05-04T05:15:04.493Z,61.10
2023-05-04T05:17:32.206Z,61.20
2023-05-04T05:19:59.476Z,61.40
2023-05-04T05:22:29.386Z,61.50
2023-05-04T05:24:56.829Z,61.60
2023-05-04T05:27:24.123Z,61.70
2023-05-04T05:29:51.388Z,61.80
2023-05-04T05:32:18.737Z,61.90
2023-05-04T05:34:45.997Z,61.90
2023-05-04T05:37:13.253Z,61.90
2023-05-04T05:39:40.604Z,61.90
2023-05-04T05:42:08.354Z,61.90
2023-05-04T05:44:37.862Z,61.80
2023-05-04T05:47:05.795Z,61.80
2023-05-04T05:49:33.075Z,61.90
2023-05-04T05:52:00.421Z,61.90
2023-05-04T05:54:30.436Z,61.80
2023-05-04T05:56:58.203Z,62.00
2023-05-04T05:59:25.560Z,62.10
2023-05-04T06:01:52.949Z,62.30
2023-05-04T06:04:20.788Z,62.40
2023-05-04T06:06:48.356Z,62.20
2023-05-04T06:09:15.610Z,62.10
2023-05-04T06:11:43.007Z,62.20
2023-05-04T06:14:12.535Z,62.10
2023-05-04T06:16:39.968Z,62.00
2023-05-04T06:19:11.752Z,62.70
2023-05-04T06:21:38.899Z,62.00
2023-05-04T06:24:06.335Z,61.90
2023-05-04T06:26:33.754Z,61.80
2023-05-04T06:29:01.053Z,62.10
2023-05-04T06:31:30.731Z,62.10
2023-05-04T06:33:58.019Z,62.00
2023-05-04T06:36:27.793Z,62.00
2023-05-04T06:38:58.313Z,62.10
2023-05-04T06:41:25.945Z,62.00
2023-05-04T06:43:53.410Z,61.80
2023-05-04T06:46:22.868Z,61.70
2023-05-04T06:48:50.169Z,61.80
2023-05-04T06:51:17.403Z,61.90
2023-05-04T06:53:47.278Z,61.80
2023-05-04T06:56:14.541Z,61.60
2023-05-04T06:58:41.781Z,61.30
2023-05-04T07:01:09.329Z,61.00
2023-05-04T07:03:43.699Z,60.70
2023-05-04T07:06:13.859Z,60.90
2023-05-04T07:08:43.447Z,61.20
2023-05-04T07:11:14.056Z,61.40
2023-05-04T07:13:41.334Z,61.20
2023-05-04T07:16:09.247Z,61.10
2023-05-04T07:18:38.891Z,60.90
2023-05-04T07:21:27.009Z,61.20
2023-05-04T07:23:56.346Z,60.80
2023-05-04T07:26:25.993Z,60.90
2023-05-04T07:28:55.894Z,61.20
2023-05-04T07:31:23.391Z,61.30
2023-05-04T07:33:51.760Z,61.30
2023-05-04T07:36:19.072Z,61.20
2023-05-04T07:38:46.938Z,61.00
2023-05-04T07:41:14.232Z,61.40
2023-05-04T07:43:43.676Z,60.90
2023-05-04T07:46:11.185Z,60.30
2023-05-04T07:48:41.005Z,60.50
2023-05-04T07:51:16.286Z,60.40
2023-05-04T07:53:46.158Z,60.70
2023-05-04T07:56:13.977Z,59.90
2023-05-04T07:58:41.586Z,59.40
2023-05-04T08:01:08.892Z,59.20
2023-05-04T08:03:38.644Z,58.30
2023-05-04T08:06:07.699Z,59.10
2023-05-04T08:08:34.982Z,58.00
2023-05-04T08:11:15.837Z,58.30
2023-05-04T08:13:50.745Z,57.30
2023-05-04T08:16:18.187Z,57.90
2023-05-04T08:18:45.512Z,59.00
2023-05-04T08:21:15.277Z,59.50
2023-05-04T08:23:42.713Z,59.80
2023-05-04T08:26:09.994Z,58.90
2023-05-04T08:28:39.040Z,58.50
2023-05-04T08:31:06.782Z,58.60
2023-05-04T08:33:34.589Z,57.60
2023-05-04T08:36:03.422Z,57.80
2023-05-04T08:38:33.527Z,56.90
2023-05-04T08:41:07.319Z,58.00
2023-05-04T08:43:37.545Z,57.00
2023-05-04T08:46:09.797Z,57.40
2023-05-04T08:48:37.596Z,57.30
2023-05-04T08:51:07.202Z,57.40
2023-05-04T08:53:37.731Z,57.20
2023-05-04T08:56:11.488Z,57.20
2023-05-04T08:58:48.005Z,57.00
2023-05-04T09:01:17.132Z,55.20
2023-05-04T09:03:50.171Z,55.60
2023-05-04T09:06:18.065Z,55.00
2023-05-04T09:08:46.520Z,55.40
2023-05-04T09:11:14.083Z,55.40
2023-05-04T09:13:43.817Z,55.60
2023-05-04T09:16:12.244Z,54.70
2023-05-04T09:18:45.119Z,54.30
2023-05-04T09:21:12.614Z,55.00
2023-05-04T09:23:47.355Z,54.80
2023-05-04T09:26:14.949Z,53.90
2023-05-04T09:28:45.180Z,54.60
2023-05-04T09:31:17.561Z,55.00
2023-05-04T09:33:44.868Z,55.40
2023-05-04T09:36:21.026Z,54.30
2023-05-04T09:38:48.908Z,53.10
2023-05-04T09:41:16.395Z,53.10
2023-05-04T09:43:46.306Z,53.60
2023-05-04T09:46:18.465Z,52.10
2023-05-04T09:48:53.833Z,51.70
2023-05-04T09:51:27.405Z,50.90
2023-05-04T09:54:04.145Z,51.10
2023-05-04T09:57:11.721Z,50.70
2023-05-04T09:59:39.712Z,51.80
2023-05-04T10:02:22.028Z,52.00
2023-05-04T10:04:51.972Z,50.60
2023-05-04T10:07:22.471Z,50.80
2023-05-04T10:09:51.247Z,52.80
2023-05-04T10:12:21.138Z,52.60
2023-05-04T10:14:50.754Z,51.40
2023-05-04T10:17:26.761Z,51.10
2023-05-04T10:20:31.460Z,50.70
2023-05-04T10:23:18.874Z,50.40
2023-05-04T10:26:07.975Z,51.90
2023-05-04T10:28:57.997Z,50.80
2023-05-04T10:31:25.851Z,48.90
2023-05-04T10:33:54.033Z,50.10
2023-05-04T10:36:23.596Z,50.60
2023-05-04T10:38:50.898Z,49.30
2023-05-04T10:41:20.295Z,48.10
2023-05-04T10:43:53.517Z,49.10
2023-05-04T10:46:22.974Z,49.30
2023-05-04T10:48:51.552Z,48.20
2023-05-04T10:51:38.748Z,48.50
2023-05-04T10:54:18.858Z,46.90
2023-05-04T10:56:46.156Z,47.90
2023-05-04T10:59:14.974Z,47.30
2023-05-04T11:01:45.837Z,48.10
2023-05-04T11:04:24.007Z,46.10
2023-05-04T11:07:02.396Z,47.00
2023-05-04T11:09:37.784Z,47.10
2023-05-04T11:12:06.559Z,46.10
2023-05-04T11:14:42.620Z,47.20
2023-05-04T11:19:50.894Z,46.20
2023-05-04T11:22:18.810Z,45.70
2023-05-04T11:24:50.027Z,44.90
2023-05-04T11:27:32.855Z,46.20
2023-05-04T11:30:06.758Z,46.10
2023-05-04T11:32:49.679Z,45.60
2023-05-04T11:35:19.017Z,46.80
2023-05-04T11:37:50.664Z,45.40
2023-05-04T11:40:22.927Z,44.50
2023-05-04T11:42:52.846Z,44.50
2023-05-04T11:45:26.527Z,44.20
2023-05-04T11:47:56.567Z,42.40
2023-05-04T11:50:25.346Z,43.10
2023-05-04T11:53:03.741Z,41.40
2023-05-04T11:55:34.907Z,41.70
2023-05-04T11:58:08.463Z,40.80
2023-05-04T12:00:42.068Z,43.50
2023-05-04T12:03:13.443Z,42.70
2023-05-04T12:05:57.120Z,43.20
2023-05-04T12:08:31.961Z,45.00
2023-05-04T12:11:14.902Z,41.10
2023-05-04T12:13:43.854Z,41.40
2023-05-04T12:16:19.002Z,38.30
2023-05-04T12:18:47.753Z,39.70
2023-05-04T12:21:19.969Z,38.60
2023-05-04T12:23:49.450Z,40.40
2023-05-04T12:26:19.898Z,38.80
2023-05-04T12:28:47.683Z,37.50
2023-05-04T12:31:15.107Z,38.40
2023-05-04T12:33:45.521Z,37.30
2023-05-04T12:36:12.944Z,36.70
2023-05-04T12:38:40.263Z,38.50
2023-05-04T12:41:10.732Z,38.20
2023-05-04T12:43:38.456Z,36.30
2023-05-04T12:46:05.960Z,37.40
2023-05-04T12:48:37.904Z,36.70
2023-05-04T12:51:05.522Z,34.10
2023-05-04T12:53:32.948Z,35.80
2023-05-04T12:56:05.483Z,34.00
2023-05-04T12:58:32.783Z,33.50
2023-05-04T13:01:00.190Z,34.00
2023-05-04T13:03:29.841Z,32.90
2023-05-04T13:05:58.049Z,30.80
2023-05-04T13:08:25.927Z,32.10
2023-05-04T13:10:53.694Z,30.80
2023-05-04T13:13:24.373Z,31.70
2023-05-04T13:15:54.682Z,31.00
2023-05-04T13:18:27.413Z,31.30
2023-05-04T13:20:56.572Z,31.10
2023-05-04T13:23:26.500Z,29.10
2023-05-04T13:25:56.492Z,30.70
2023-05-04T13:28:25.978Z,31.80
2023-05-04T13:30:55.836Z,32.80
2023-05-04T13:33:29.638Z,33.60
2023-05-04T13:35:58.749Z,32.60
2023-05-04T13:38:26.292Z,32.30
2023-05-04T13:40:54.523Z,32.30
2023-05-04T13:43:24.940Z,31.90
2023-05-04T13:45:52.387Z,32.90
2023-05-04T13:48:19.750Z,32.30
2023-05-04T13:50:49.479Z,33.60
2023-05-04T13:53:16.916Z,33.80
2023-05-04T13:55:44.477Z,34.60
2023-05-04T13:58:11.760Z,35.20
2023-05-04T14:00:39.121Z,34.70
2023-05-04T14:03:08.852Z,34.00
2023-05-04T14:05:36.478Z,32.60
2023-05-04T14:08:06.303Z,31.10
2023-05-04T14:10:37.250Z,31.90
2023-05-04T14:13:04.884Z,32.90
2023-05-04T14:15:34.575Z,34.00
2023-05-04T14:18:01.985Z,35.00
2023-05-04T14:20:29.264Z,35.20
2023-05-04T14:22:56.588Z,36.10
2023-05-04T14:25:26.773Z,35.20
2023-05-04T14:27:56.638Z,35.20
2023-05-04T14:30:24.071Z,35.80
2023-05-04T14:32:54.385Z,36.50
2023-05-04T14:35:21.845Z,36.30
2023-05-04T14:37:51.827Z,34.80
2023-05-04T14:40:21.295Z,32.90
2023-05-04T14:42:48.613Z,32.90
2023-05-04T14:45:18.469Z,32.20
2023-05-04T14:47:45.853Z,33.50
2023-05-04T14:50:13.751Z,34.50
2023-05-04T14:52:43.253Z,34.20
2023-05-04T14:55:13.166Z,34.00
2023-05-04T14:57:41.219Z,34.80
2023-05-04T15:00:09.565Z,33.30
2023-05-04T15:02:39.588Z,33.30
2023-05-04T15:05:12.440Z,34.20
2023-05-04T15:07:42.260Z,34.90
2023-05-04T15:10:10.500Z,34.40
2023-05-04T15:12:38.152Z,33.00
2023-05-04T15:15:08.469Z,32.30
2023-05-04T15:17:38.511Z,32.50
2023-05-04T15:20:07.398Z,33.30
2023-05-04T15:22:37.571Z,32.50
2023-05-04T15:25:05.696Z,33.00
2023-05-04T15:27:35.141Z,33.30
2023-05-04T15:30:02.441Z,32.90
2023-05-04T15:32:32.270Z,32.90
2023-05-04T15:35:05.477Z,32.50
2023-05-04T15:37:36.035Z,33.20
2023-05-04T15:40:04.752Z,33.40
2023-05-04T15:42:34.562Z,33.70
2023-05-04T15:45:04.666Z,33.60
2023-05-04T15:47:32.139Z,33.50
2023-05-04T15:49:59.590Z,33.70
2023-05-04T15:52:29.396Z,33.80
2023-05-04T15:55:00.713Z,33.70
2023-05-04T15:57:33.782Z,34.70
2023-05-04T16:00:02.574Z,33.70
2023-05-04T16:02:31.289Z,34.30
2023-05-04T16:04:58.876Z,34.30
2023-05-04T16:07:28.360Z,34.40
2023-05-04T16:09:55.678Z,33.60
2023-05-04T16:12:23.156Z,33.60
2023-05-04T16:14:50.935Z,33.40
2023-05-04T16:17:18.198Z,32.30
2023-05-04T16:19:47.646Z,32.50
2023-05-04T16:22:17.393Z,32.60
2023-05-04T16:24:44.625Z,32.30
2023-05-04T16:27:14.396Z,30.90
2023-05-04T16:29:43.756Z,31.10
2023-05-04T16:32:13.448Z,31.50
2023-05-04T16:34:45.820Z,31.20
2023-05-04T16:37:13.365Z,31.10
2023-05-04T16:39:42.869Z,30.00
2023-05-04T16:42:10.158Z,30.60
2023-05-04T16:44:39.737Z,29.70
2023-05-04T16:47:07.200Z,30.20
2023-05-04T16:49:36.738Z,29.70
2023-05-04T16:52:05.001Z,30.70
2023-05-04T16:54:32.312Z,30.00
2023-05-04T16:56:59.612Z,30.10
2023-05-04T16:59:26.960Z,30.10
2023-05-04T17:01:59.126Z,30.10
2023-05-04T17:04:27.616Z,30.80
2023-05-04T17:06:57.295Z,31.10
2023-05-04T17:09:27.131Z,31.20
2023-05-04T17:11:54.851Z,30.70
2023-05-04T17:14:22.189Z,30.70
2023-05-04T17:16:49.428Z,30.70
2023-05-04T17:19:19.230Z,31.10
2023-05-04T17:21:46.695Z,30.70
2023-05-04T17:24:17.030Z,31.00
2023-05-04T17:26:46.595Z,31.00
2023-05-04T17:29:13.832Z,31.60
2023-05-04T17:31:41.196Z,32.00
2023-05-04T17:34:12.785Z,31.80
2023-05-04T17:36:40.113Z,32.10
2023-05-04T17:39:11.715Z,32.10
2023-05-04T17:41:39.084Z,32.50
2023-05-04T17:44:06.398Z,32.40
2023-05-04T17:46:34.655Z,32.80
2023-05-04T17:49:01.999Z,33.00
2023-05-04T17:51:32.252Z,33.30
2023-05-04T17:53:59.767Z,33.30
2023-05-04T17:56:27.088Z,34.00
2023-05-04T17:58:54.381Z,34.40
2023-05-04T18:01:24.090Z,34.30
2023-05-04T18:03:53.921Z,34.80
2023-05-04T18:06:21.271Z,35.50
2023-05-04T18:08:50.827Z,35.40
2023-05-04T18:11:18.072Z,35.90
2023-05-04T18:13:45.280Z,36.80
2023-05-04T18:16:12.586Z,36.40
2023-05-04T18:18:40.649Z,36.60
2023-05-04T18:21:07.966Z,36.70
2023-05-04T18:23:35.199Z,37.10
2023-05-04T18:26:02.634Z,37.40
2023-05-04T18:28:30.503Z,37.10
2023-05-04T18:30:57.802Z,37.30
2023-05-04T18:33:25.100Z,37.70
2023-05-04T18:35:56.840Z,37.90
2023-05-04T18:38:26.276Z,38.60
2023-05-04T18:40:53.947Z,38.70
2023-05-04T18:43:21.263Z,38.60
2023-05-04T18:45:50.723Z,38.90
2023-05-04T18:48:18.031Z,38.90
2023-05-04T18:50:57.206Z,39.00
2023-05-04T18:53:26.752Z,39.20
2023-05-04T18:56:09.706Z,39.20
2023-05-04T18:58:38.022Z,39.00
2023-05-04T19:01:09.658Z,38.90
2023-05-04T19:03:37.107Z,39.30
2023-05-04T19:06:04.551Z,39.20
2023-05-04T19:08:34.197Z,39.30
2023-05-04T19:11:03.515Z,39.50
2023-05-04T19:13:33.525Z,39.60
2023-05-04T19:16:03.284Z,39.80
2023-05-04T19:18:30.638Z,40.00
2023-05-04T19:20:57.964Z,39.90
2023-05-04T19:23:25.269Z,40.30
2023-05-04T19:25:57.290Z,40.40
2023-05-04T19:28:24.916Z,40.40
2023-05-04T19:30:53.985Z,40.40
2023-05-04T19:33:30.374Z,40.60
2023-05-04T19:36:04.271Z,40.30
2023-05-04T19:38:34.418Z,40.30
2023-05-04T19:41:04.314Z,40.40
2023-05-04T19:43:34.031Z,40.40
2023-05-04T19:46:06.921Z,40.30
2023-05-04T19:48:34.305Z,41.30
2023-05-04T19:51:04.880Z,41.40
2023-05-04T19:53:34.349Z,41.20
2023-05-04T19:56:01.791Z,40.80
2023-05-04T19:58:30.866Z,41.40
2023-05-04T20:00:58.277Z,40.90
2023-05-04T20:03:27.853Z,40.90
2023-05-04T20:05:57.546Z,41.20
2023-05-04T20:08:26.991Z,41.00
2023-05-04T20:10:54.268Z,41.10
2023-05-04T20:13:25.565Z,41.20
2023-05-04T20:15:53.042Z,41.10
2023-05-04T20:18:20.452Z,40.80
2023-05-04T20:20:47.767Z,41.10
2023-05-04T20:23:15.105Z,41.40
2023-05-04T20:25:42.939Z,41.00
2023-05-04T20:28:10.240Z,41.10
2023-05-04T20:30:37.596Z,41.60
2023-05-04T20:33:07.241Z,41.20
2023-05-04T20:35:37.135Z,42.00
2023-05-04T20:38:04.709Z,41.10
2023-05-04T20:40:32.145Z,41.30
2023-05-04T20:43:01.705Z,41.30
2023-05-04T20:45:30.867Z,41.70
2023-05-04T20:47:58.539Z,41.40
2023-05-04T20:50:26.178Z,41.70
2023-05-04T20:52:53.723Z,41.60
2023-05-04T20:55:21.024Z,41.90
2023-05-04T20:57:48.410Z,41.80
2023-05-04T21:00:18.592Z,41.90
2023-05-04T21:02:51.220Z,42.00
2023-05-04T21:05:19.316Z,42.10
2023-05-04T21:07:46.721Z,42.40
2023-05-04T21:10:15.067Z,42.30
2023-05-04T21:12:42.392Z,42.40
2023-05-04T21:15:10.762Z,42.20
2023-05-04T21:17:38.153Z,42.60
2023-05-04T21:20:06.327Z,42.50
2023-05-04T21:22:33.975Z,42.60
2023-05-04T21:25:01.404Z,42.80
2023-05-04T21:27:28.728Z,43.00
2023-05-04T21:29:56.029Z,43.10
2023-05-04T21:32:23.431Z,43.60
2023-05-04T21:34:52.664Z,43.70
2023-05-04T21:37:19.999Z,43.70
2023-05-04T21:39:47.698Z,43.50
2023-05-04T21:42:14.945Z,43.60
2023-05-04T21:44:44.405Z,43.70
2023-05-04T21:47:11.667Z,43.70
2023-05-04T21:49:41.382Z,43.70
2023-05-04T21:52:08.755Z,43.80
2023-05-04T21:54:36.374Z,44.10
2023-05-04T21:57:08.360Z,44.40
2023-05-04T21:59:35.801Z,44.50
2023-05-04T22:02:03.555Z,44.40
2023-05-04T22:04:33.033Z,45.20
2023-05-04T22:07:00.362Z,44.90
2023-05-04T22:09:28.362Z,45.00
2023-05-04T22:11:55.753Z,45.00
2023-05-04T22:14:23.034Z,45.30
2023-05-04T22:16:50.321Z,45.60
2023-05-04T22:19:17.638Z,45.20
2023-05-04T22:21:44.975Z,45.50
2023-05-04T22:24:12.236Z,45.30
2023-05-04T22:26:41.267Z,45.60
2023-05-04T22:29:11.180Z,45.90
2023-05-04T22:31:40.567Z,46.00
2023-05-04T22:34:07.891Z,46.50
2023-05-04T22:36:35.203Z,45.70
2023-05-04T22:39:05.104Z,45.70
2023-05-04T22:41:34.649Z,45.50
2023-05-04T22:44:04.453Z,45.60
2023-05-04T22:46:31.745Z,45.20
2023-05-04T22:49:01.767Z,45.90
2023-05-04T22:51:29.150Z,46.10
2023-05-04T22:53:56.474Z,46.00
2023-05-04T22:56:26.155Z,46.40
2023-05-04T22:58:55.685Z,46.30
2023-05-04T23:01:23.032Z,46.30
2023-05-04T23:03:51.347Z,46.60
2023-05-04T23:06:18.765Z,46.70
2023-05-04T23:08:46.155Z,47.00
2023-05-04T23:11:13.448Z,46.90
2023-05-04T23:13:40.685Z,46.90
2023-05-04T23:16:08.198Z,46.90
2023-05-04T23:18:35.667Z,47.10
2023-05-04T23:21:02.939Z,47.10
2023-05-04T23:23:32.531Z,47.00
2023-05-04T23:25:59.820Z,47.20
2023-05-04T23:28:27.076Z,47.40
2023-05-04T23:30:55.756Z,47.40
2023-05-04T23:33:23.240Z,47.00
2023-05-04T23:35:55.181Z,47.20
2023-05-04T23:38:25.189Z,46.90
2023-05-04T23:40:52.463Z,46.60
2023-05-04T23:43:21.202Z,46.60
2023-05-04T23:45:50.962Z,46.40
2023-05-04T23:48:18.329Z,46.70
2023-05-04T23:50:57.499Z,47.30
2023-05-04T23:53:27.011Z,47.90
2023-05-04T23:56:00.622Z,47.60
2023-05-04T23:58:30.268Z,47.00
